Time;durP1;ratioP1;P1;durP2;ratioP2;P2;SDS_P1;SDS_P2;PMS_P1;PMS_P2;Temp;Humidity;BMP_temperature;BMP_pressure;BME280_temperature;BME280_humidity;BME280_pressure;Samples;Min_cycle;Max_cycle;Signal;HPM_P1;HPM_P2
2021/12/01 00:00:02;;;;;;;4.68;1.48;;;24.30;88.90;;;;;;5069177;28;20037;-57
2021/12/01 00:02:30;;;;;;;2.75;1.20;;;24.70;86.20;;;;;;5068219;28;20033;-59
2021/12/01 00:04:57;;;;;;;5.35;2.85;;;24.80;85.20;;;;;;5073213;28;20035;-59
2021/12/01 00:07:25;;;;;;;7.15;3.35;;;24.70;86.30;;;;;;5071506;28;20035;-59
2021/12/01 00:09:52;;;;;;;1.48;0.60;;;25.20;84.30;;;;;;5072172;28;20032;-55
2021/12/01 00:12:20;;;;;;;3.20;1.00;;;24.90;83.30;;;;;;5067594;28;20033;-60
2021/12/01 00:14:48;;;;;;;6.88;2.05;;;25.00;84.70;;;;;;5072783;28;20111;-56
2021/12/01 00:17:15;;;;;;;6.13;2.65;;;25.30;84.00;;;;;;5073060;28;20024;-56
2021/12/01 00:19:43;;;;;;;1.02;0.50;;;25.30;85.90;;;;;;5071585;28;20028;-59
2021/12/01 00:22:10;;;;;;;2.22;0.60;;;25.40;82.80;;;;;;5069871;28;20021;-58
2021/12/01 00:24:37;;;;;;;2.83;1.08;;;25.20;83.20;;;;;;5072346;28;20032;-60
2021/12/01 00:27:05;;;;;;;8.75;1.95;;;24.90;85.40;;;;;;5071596;28;20375;-60
2021/12/01 00:29:32;;;;;;;3.95;2.30;;;24.70;87.20;;;;;;5072423;28;20048;-58
2021/12/01 00:32:00;;;;;;;3.78;1.73;;;24.70;87.50;;;;;;5072082;28;20032;-56
2021/12/01 00:34:27;;;;;;;4.40;2.45;;;24.80;85.00;;;;;;5069103;28;20108;-54
2021/12/01 00:36:55;;;;;;;2.17;1.73;;;24.50;88.50;;;;;;5071728;28;20029;-54
2021/12/01 00:39:23;;;;;;;6.65;0.95;;;24.70;86.90;;;;;;5071981;28;20021;-58
2021/12/01 00:41:52;;;;;;;4.88;1.63;;;24.80;86.40;;;;;;5072801;28;20035;-57
2021/12/01 00:44:19;;;;;;;3.33;1.40;;;24.80;86.50;;;;;;5068033;28;20021;-61
2021/12/01 00:49:21;;;;;;;3.35;1.90;;;25.10;85.00;;;;;;5071775;28;20037;-56
2021/12/01 00:51:49;;;;;;;5.13;1.67;;;25.00;86.10;;;;;;5070721;28;20395;-59
2021/12/01 00:54:17;;;;;;;5.35;2.00;;;24.50;88.90;;;;;;5067865;28;20051;-55
2021/12/01 00:56:45;;;;;;;3.53;1.42;;;24.60;89.70;;;;;;5071889;28;20032;-57
2021/12/01 00:59:13;;;;;;;2.10;1.30;;;25.20;85.70;;;;;;5070460;28;20032;-60
2021/12/01 01:01:41;;;;;;;3.42;1.67;;;25.20;84.20;;;;;;5069420;28;20094;-60
2021/12/01 01:04:08;;;;;;;3.45;1.27;;;25.10;87.00;;;;;;5067945;28;20096;-57
2021/12/01 01:06:37;;;;;;;2.97;1.13;;;25.10;84.70;;;;;;5071598;28;20431;-60
2021/12/01 01:09:07;;;;;;;2.72;1.10;;;25.00;87.00;;;;;;5071296;28;20113;-58
2021/12/01 01:17:09;;;;;;;2.20;1.40;;;24.80;88.70;;;;;;5068326;28;20497;-56
2021/12/01 01:19:39;;;;;;;1.75;1.30;;;25.20;86.70;;;;;;5071237;28;20040;-60
2021/12/01 01:22:08;;;;;;;4.55;1.65;;;25.00;88.10;;;;;;5069537;28;20550;-56
2021/12/01 01:24:37;;;;;;;0.95;0.60;;;25.60;85.00;;;;;;5071028;28;20024;-57
2021/12/01 01:27:05;;;;;;;2.00;0.40;;;25.80;79.60;;;;;;5071263;28;20029;-60
2021/12/01 01:29:36;;;;;;;2.42;1.08;;;25.80;78.20;;;;;;5070647;28;20037;-59
2021/12/01 01:32:04;;;;;;;0.57;0.20;;;25.60;79.00;;;;;;5069779;28;20090;-56
2021/12/01 01:34:32;;;;;;;1.98;0.73;;;25.30;79.60;;;;;;5069774;28;20031;-60
2021/12/01 01:36:59;;;;;;;3.75;1.40;;;25.50;80.20;;;;;;5070612;28;20500;-58
2021/12/01 01:39:27;;;;;;;3.55;1.30;;;25.70;79.50;;;;;;5069732;28;20020;-59
2021/12/01 01:41:54;;;;;;;1.45;0.82;;;25.70;83.40;;;;;;5071086;28;20032;-60
2021/12/01 01:44:22;;;;;;;4.25;1.20;;;25.30;84.00;;;;;;5067995;28;20387;-59
2021/12/01 01:46:50;;;;;;;2.63;1.20;;;25.20;85.80;;;;;;5071474;28;20148;-56
2021/12/01 01:49:19;;;;;;;1.80;0.93;;;25.30;85.20;;;;;;5070967;28;20024;-53
2021/12/01 01:51:49;;;;;;;2.63;1.27;;;25.20;85.50;;;;;;5070566;28;20032;-58
2021/12/01 01:54:17;;;;;;;3.65;1.00;;;25.20;86.50;;;;;;5066466;28;20063;-54
2021/12/01 01:56:45;;;;;;;2.03;0.85;;;25.10;86.20;;;;;;5070766;28;20020;-58
2021/12/01 01:59:12;;;;;;;1.77;0.82;;;25.10;86.30;;;;;;5070160;28;20021;-57
2021/12/01 02:01:44;;;;;;;3.47;1.10;;;25.00;88.00;;;;;;5069911;28;20360;-55
2021/12/01 02:04:13;;;;;;;0.77;0.60;;;24.90;87.40;;;;;;5067118;28;20543;-56
2021/12/01 02:06:41;;;;;;;1.25;0.73;;;25.00;87.40;;;;;;5071036;28;20081;-53
2021/12/01 02:09:09;;;;;;;2.50;1.20;;;25.10;86.90;;;;;;5069711;28;20387;-57
2021/12/01 02:11:37;;;;;;;2.78;1.63;;;25.00;87.80;;;;;;5070655;28;20108;-61
2021/12/01 02:14:05;;;;;;;4.30;2.47;;;25.10;86.80;;;;;;5067152;28;20016;-57
2021/12/01 02:16:33;;;;;;;5.68;3.28;;;25.10;87.00;;;;;;5070569;28;20090;-56
2021/12/01 02:19:01;;;;;;;10.85;4.05;;;25.10;86.80;;;;;;5068987;28;20107;-53
2021/12/01 02:21:30;;;;;;;9.88;4.35;;;25.00;87.80;;;;;;5070474;28;20025;-51
2021/12/01 02:24:00;;;;;;;6.90;4.32;;;25.10;86.80;;;;;;5066887;28;20419;-54
2021/12/01 02:26:30;;;;;;;6.28;3.28;;;25.00;88.30;;;;;;5067618;28;20491;-58
2021/12/01 02:29:01;;;;;;;5.82;3.20;;;25.00;87.10;;;;;;5070498;28;20118;-60
2021/12/01 02:31:33;;;;;;;9.68;2.75;;;24.90;88.30;;;;;;5070431;28;20067;-55
2021/12/01 02:34:04;;;;;;;4.22;2.60;;;25.00;87.50;;;;;;5065101;28;20028;-55
2021/12/01 02:36:32;;;;;;;3.38;2.20;;;25.00;87.00;;;;;;5067378;28;20451;-53
2021/12/01 02:39:01;;;;;;;5.28;2.20;;;25.00;86.70;;;;;;5067565;28;20064;-56
2021/12/01 02:41:35;;;;;;;5.57;2.10;;;25.10;86.40;;;;;;5069476;28;20025;-52
2021/12/01 02:44:10;;;;;;;6.60;2.80;;;25.10;85.70;;;;;;5064147;28;20445;-52
2021/12/01 02:46:49;;;;;;;7.97;2.25;;;25.10;85.70;;;;;;5067919;28;20024;-53
2021/12/01 02:49:55;;;;;;;3.30;1.77;;;25.10;85.90;;;;;;5068517;28;20029;-54
2021/12/01 02:52:45;;;;;;;4.05;1.88;;;25.10;86.40;;;;;;5064115;28;20527;-51
2021/12/01 02:55:18;;;;;;;2.53;1.42;;;25.10;86.80;;;;;;5065006;28;20125;-53
2021/12/01 02:57:51;;;;;;;5.28;1.83;;;25.10;86.20;;;;;;5067342;28;20067;-60
2021/12/01 03:00:22;;;;;;;3.55;1.75;;;25.10;86.30;;;;;;5052422;28;20044;-57
2021/12/01 03:02:52;;;;;;;4.50;1.85;;;25.00;86.70;;;;;;5051642;28;20025;-60
2021/12/01 03:05:20;;;;;;;2.72;1.30;;;25.00;86.60;;;;;;5051190;28;20044;-55
2021/12/01 03:07:49;;;;;;;5.90;2.22;;;25.00;86.10;;;;;;5052818;28;20356;-58
2021/12/01 03:10:17;;;;;;;6.15;1.50;;;25.00;86.80;;;;;;5052573;28;20041;-60
2021/12/01 03:12:44;;;;;;;3.55;1.88;;;25.00;86.70;;;;;;5052589;28;20037;-55
2021/12/01 03:15:16;;;;;;;2.10;1.45;;;25.00;86.30;;;;;;5068251;28;20025;-59
2021/12/01 03:17:44;;;;;;;3.05;1.40;;;24.90;86.10;;;;;;5072747;28;20043;-59
2021/12/01 03:20:14;;;;;;;2.78;1.30;;;24.90;86.50;;;;;;5072399;28;20013;-57
2021/12/01 03:22:43;;;;;;;3.60;1.52;;;25.00;86.20;;;;;;5072114;28;20549;-55
2021/12/01 03:25:12;;;;;;;2.15;1.05;;;25.00;86.50;;;;;;5071995;28;20094;-56
2021/12/01 03:27:40;;;;;;;2.65;1.15;;;25.00;86.30;;;;;;5063930;28;20032;-55
2021/12/01 03:30:10;;;;;;;3.78;1.40;;;25.40;79.40;;;;;;5067068;28;20044;-56
2021/12/01 03:32:39;;;;;;;2.15;0.88;;;25.10;80.20;;;;;;5068904;28;20078;-61
2021/12/01 03:35:14;;;;;;;2.80;1.50;;;25.10;80.60;;;;;;5069476;28;20078;-59
2021/12/01 03:37:45;;;;;;;1.58;0.30;;;25.10;82.30;;;;;;5072762;28;20505;-62
2021/12/01 03:40:15;;;;;;;2.03;0.73;;;25.30;76.70;;;;;;5071173;28;20043;-56
2021/12/01 03:42:46;;;;;;;2.00;1.05;;;25.20;78.70;;;;;;5072316;28;20041;-59
2021/12/01 03:45:20;;;;;;;3.58;0.63;;;25.00;83.10;;;;;;5074000;28;20503;-59
2021/12/01 03:47:47;;;;;;;0.85;0.40;;;25.00;83.20;;;;;;5073024;28;20115;-59
2021/12/01 03:50:15;;;;;;;2.60;0.70;;;25.30;76.90;;;;;;5067654;28;20032;-56
2021/12/01 03:52:42;;;;;;;1.85;1.08;;;25.10;82.80;;;;;;5073618;28;20032;-60
2021/12/01 03:55:11;;;;;;;7.20;1.48;;;25.10;84.90;;;;;;5073075;28;20127;-59
2021/12/01 03:57:39;;;;;;;1.13;0.40;;;25.20;82.30;;;;;;5073255;28;20028;-60
2021/12/01 04:00:11;;;;;;;1.60;0.75;;;25.20;80.10;;;;;;5071966;28;20078;-56
2021/12/01 04:02:39;;;;;;;1.73;1.52;;;25.50;79.80;;;;;;5072518;28;20063;-58
2021/12/01 04:05:07;;;;;;;3.03;2.05;;;25.20;82.60;;;;;;5073617;28;20024;-58
2021/12/01 04:07:35;;;;;;;2.72;1.77;;;25.40;81.70;;;;;;5072555;28;20028;-59
2021/12/01 04:10:05;;;;;;;1.45;0.88;;;25.20;78.60;;;;;;5072697;28;20038;-60
2021/12/01 04:12:33;;;;;;;2.63;1.17;;;25.20;79.60;;;;;;5071011;28;20105;-60
2021/12/01 04:15:01;;;;;;;2.33;1.50;;;25.70;76.70;;;;;;5072903;28;20050;-61
2021/12/01 04:17:28;;;;;;;4.63;1.48;;;25.40;81.10;;;;;;5071971;28;20435;-58
2021/12/01 04:19:56;;;;;;;5.93;3.15;;;25.60;78.00;;;;;;5069020;28;20020;-62
2021/12/01 04:22:24;;;;;;;2.65;2.13;;;25.20;82.70;;;;;;5068855;28;20459;-54
2021/12/01 04:24:51;;;;;;;1.48;1.10;;;25.30;81.30;;;;;;5072766;28;20094;-57
2021/12/01 04:27:19;;;;;;;3.67;3.03;;;25.30;78.90;;;;;;5072995;28;20431;-63
2021/12/01 04:29:46;;;;;;;2.60;1.80;;;25.20;82.80;;;;;;5073386;28;20480;-60
2021/12/01 04:32:15;;;;;;;1.90;0.63;;;25.20;80.50;;;;;;5068645;28;20546;-56
2021/12/01 04:34:42;;;;;;;4.13;2.38;;;25.00;81.40;;;;;;5072848;28;20025;-59
2021/12/01 04:37:10;;;;;;;2.38;1.88;;;24.90;81.50;;;;;;5072447;28;20077;-56
2021/12/01 04:39:37;;;;;;;4.50;1.35;;;25.00;78.80;;;;;;5072458;28;20107;-60
2021/12/01 04:42:06;;;;;;;1.90;1.17;;;24.70;84.00;;;;;;5069141;28;20387;-59
2021/12/01 04:44:36;;;;;;;1.95;1.75;;;24.90;82.80;;;;;;5071434;28;20070;-62
2021/12/01 04:47:13;;;;;;;2.05;0.95;;;24.90;78.80;;;;;;5072332;28;20028;-59
2021/12/01 04:49:41;;;;;;;1.98;0.73;;;25.20;78.00;;;;;;5068020;28;20082;-60
2021/12/01 04:52:10;;;;;;;2.25;1.42;;;24.80;81.30;;;;;;5069105;28;20020;-61
2021/12/01 04:54:39;;;;;;;2.05;0.50;;;25.00;82.10;;;;;;5071707;28;20054;-61
2021/12/01 04:57:07;;;;;;;3.70;1.50;;;25.20;78.40;;;;;;5073087;28;21913;-61
2021/12/01 04:59:37;;;;;;;1.77;1.08;;;25.00;83.00;;;;;;5067985;28;20533;-60
2021/12/01 05:02:05;;;;;;;0.88;0.47;;;25.20;80.60;;;;;;5068958;28;20024;-59
2021/12/01 05:04:32;;;;;;;2.33;1.50;;;25.00;78.10;;;;;;5071732;28;20025;-58
2021/12/01 05:07:00;;;;;;;1.00;0.73;;;25.20;80.10;;;;;;5072476;28;20043;-59
2021/12/01 05:09:27;;;;;;;2.45;1.20;;;25.20;81.50;;;;;;5070049;28;20051;-56
2021/12/01 05:11:55;;;;;;;2.55;1.23;;;25.00;82.40;;;;;;5067180;28;20487;-56
2021/12/01 05:14:25;;;;;;;1.33;0.90;;;25.00;80.30;;;;;;5071920;28;20024;-56
2021/12/01 05:16:57;;;;;;;1.02;0.45;;;25.20;82.40;;;;;;5072107;28;20035;-55
2021/12/01 05:19:25;;;;;;;2.42;1.10;;;25.10;78.80;;;;;;5069656;28;20020;-58
2021/12/01 05:21:52;;;;;;;3.90;0.68;;;25.00;82.00;;;;;;5068485;28;20364;-55
2021/12/01 05:24:20;;;;;;;2.30;2.10;;;24.80;80.00;;;;;;5071750;28;20104;-56
2021/12/01 05:26:47;;;;;;;4.38;3.70;;;24.90;83.00;;;;;;5071481;28;20074;-55
2021/12/01 05:29:18;;;;;;;5.07;2.47;;;25.00;83.10;;;;;;5072050;28;20372;-59
2021/12/01 05:31:45;;;;;;;1.70;1.38;;;25.10;82.80;;;;;;5064347;28;20044;-57
2021/12/01 05:34:13;;;;;;;1.45;0.80;;;25.30;81.70;;;;;;5070677;28;20483;-55
2021/12/01 05:36:43;;;;;;;4.45;4.05;;;25.40;78.30;;;;;;5070733;28;20063;-58
2021/12/01 05:39:11;;;;;;;7.03;1.38;;;25.20;79.60;;;;;;5071168;28;20483;-63
2021/12/01 05:41:38;;;;;;;10.40;8.20;;;25.50;78.40;;;;;;5068753;28;20028;-58
2021/12/01 05:44:06;;;;;;;12.80;11.40;;;25.30;79.90;;;;;;5071631;28;20042;-59
2021/12/01 05:46:34;;;;;;;8.05;5.10;;;25.40;80.60;;;;;;5055161;28;20029;-57
2021/12/01 05:49:04;;;;;;;6.63;6.00;;;25.30;79.90;;;;;;5053514;28;20032;-58
2021/12/01 05:51:31;;;;;;;6.53;5.93;;;25.30;79.30;;;;;;5053633;28;20052;-56
2021/12/01 05:53:59;;;;;;;3.55;3.08;;;25.20;79.60;;;;;;5053502;28;20045;-60
2021/12/01 05:56:27;;;;;;;8.98;4.88;;;25.20;79.60;;;;;;5053863;28;20108;-60
2021/12/01 05:58:54;;;;;;;8.55;5.43;;;25.10;80.00;;;;;;5053189;28;20029;-60
2021/12/01 06:01:21;;;;;;;24.40;5.70;;;25.20;80.50;;;;;;5068676;28;20025;-56
2021/12/01 06:03:49;;;;;;;11.57;4.18;;;25.20;80.90;;;;;;5052516;28;20033;-57
2021/12/01 06:06:17;;;;;;;6.60;3.88;;;25.20;81.20;;;;;;5051950;28;20499;-60
2021/12/01 06:08:44;;;;;;;10.00;3.92;;;25.30;81.30;;;;;;5052561;28;20033;-62
2021/12/01 06:11:12;;;;;;;3.25;2.80;;;25.30;81.80;;;;;;5052273;28;20387;-61
2021/12/01 06:13:41;;;;;;;7.50;1.92;;;25.30;82.00;;;;;;5053280;28;20029;-61
2021/12/01 06:16:09;;;;;;;5.15;2.35;;;25.30;81.80;;;;;;5052881;28;20031;-59
2021/12/01 06:18:36;;;;;;;7.18;2.55;;;25.30;81.70;;;;;;5052946;28;20028;-58
2021/12/01 06:21:04;;;;;;;3.45;1.50;;;25.30;82.70;;;;;;5052421;28;20104;-56
2021/12/01 06:23:31;;;;;;;5.03;1.90;;;25.30;81.60;;;;;;5052910;28;20017;-60
2021/12/01 06:25:58;;;;;;;7.43;2.40;;;25.30;81.50;;;;;;5052728;28;20025;-57
2021/12/01 06:28:26;;;;;;;5.10;1.75;;;25.30;82.70;;;;;;5052844;28;20025;-58
2021/12/01 06:30:53;;;;;;;9.80;2.42;;;25.30;81.80;;;;;;5052532;28;20036;-60
2021/12/01 06:33:20;;;;;;;5.50;3.83;;;25.20;83.90;;;;;;5052407;28;20044;-58
2021/12/01 06:35:52;;;;;;;16.00;6.65;;;25.20;82.30;;;;;;5052934;28;20103;-57
2021/12/01 06:38:20;;;;;;;7.15;5.38;;;25.20;84.00;;;;;;5052802;28;20013;-63
2021/12/01 06:40:49;;;;;;;5.18;2.95;;;25.20;83.20;;;;;;5052446;28;20029;-59
2021/12/01 06:43:17;;;;;;;4.53;2.33;;;25.10;83.30;;;;;;5053118;28;20017;-58
2021/12/01 06:45:45;;;;;;;5.00;1.95;;;25.00;83.70;;;;;;5052511;28;20052;-59
2021/12/01 06:48:13;;;;;;;11.00;1.60;;;25.00;83.60;;;;;;5052231;28;20029;-58
2021/12/01 06:50:40;;;;;;;6.45;2.03;;;25.00;83.90;;;;;;5052757;28;20062;-61
2021/12/01 06:53:08;;;;;;;10.10;1.67;;;25.00;84.60;;;;;;5052293;28;20328;-56
2021/12/01 06:55:35;;;;;;;9.57;2.33;;;25.00;85.00;;;;;;5051524;28;20048;-57
2021/12/01 06:58:03;;;;;;;11.98;1.92;;;25.00;85.70;;;;;;5050472;28;20053;-60
2021/12/01 07:00:30;;;;;;;16.48;1.58;;;25.10;85.90;;;;;;5052236;28;20025;-61
2021/12/01 07:03:01;;;;;;;4.97;1.10;;;25.00;85.90;;;;;;5051932;28;20021;-60
2021/12/01 07:05:28;;;;;;;11.30;2.10;;;25.00;85.10;;;;;;5052388;28;20029;-58
2021/12/01 07:07:56;;;;;;;7.78;1.33;;;25.00;86.90;;;;;;5051898;28;20021;-57
2021/12/01 07:10:24;;;;;;;5.95;4.05;;;25.00;87.20;;;;;;5052427;28;20102;-58
2021/12/01 07:12:52;;;;;;;14.93;12.25;;;25.00;86.50;;;;;;5050563;28;20025;-58
2021/12/01 07:15:19;;;;;;;7.93;5.63;;;24.90;87.00;;;;;;5052565;28;20153;-58
2021/12/01 07:17:47;;;;;;;28.92;25.33;;;24.90;87.20;;;;;;5052910;28;20061;-59
2021/12/01 07:20:15;;;;;;;7.63;4.70;;;24.90;87.10;;;;;;5052077;28;20032;-59
2021/12/01 07:22:43;;;;;;;5.88;5.10;;;24.80;87.00;;;;;;5052584;28;20044;-56
2021/12/01 07:25:12;;;;;;;7.18;5.95;;;24.70;87.30;;;;;;5052499;28;20079;-54
2021/12/01 07:27:41;;;;;;;12.68;11.55;;;24.60;87.50;;;;;;5052133;28;20025;-59
2021/12/01 07:30:09;;;;;;;11.95;8.73;;;24.60;87.80;;;;;;5051888;28;20044;-57
2021/12/01 07:32:37;;;;;;;9.45;6.10;;;24.60;88.10;;;;;;5050724;28;20435;-53
2021/12/01 07:35:05;;;;;;;8.18;2.90;;;24.60;88.20;;;;;;5052377;28;20068;-58
2021/12/01 07:37:33;;;;;;;6.00;3.58;;;24.40;87.70;;;;;;5050947;28;20383;-56
2021/12/01 07:40:00;;;;;;;6.45;3.17;;;24.40;89.10;;;;;;5052149;28;20104;-58
2021/12/01 07:42:28;;;;;;;7.60;2.58;;;24.40;88.10;;;;;;5052186;28;20028;-56
2021/12/01 07:44:55;;;;;;;6.43;2.97;;;24.40;88.80;;;;;;5052294;28;20060;-54
2021/12/01 07:47:23;;;;;;;8.85;2.97;;;24.40;88.00;;;;;;5052011;28;20036;-59
2021/12/01 07:49:50;;;;;;;13.80;2.92;;;24.30;88.10;;;;;;5052042;28;20028;-59
2021/12/01 07:52:18;;;;;;;8.73;2.95;;;24.30;88.20;;;;;;5052283;28;20057;-57
2021/12/01 07:54:45;;;;;;;5.55;3.03;;;24.30;89.00;;;;;;5051848;28;20055;-57
2021/12/01 07:57:14;;;;;;;3.78;2.40;;;24.30;90.00;;;;;;5051989;28;20036;-55
2021/12/01 07:59:42;;;;;;;6.80;2.90;;;24.30;89.90;;;;;;5051946;28;20021;-56
2021/12/01 08:02:10;;;;;;;3.08;1.75;;;24.30;89.60;;;;;;5051297;28;20029;-56
2021/12/01 08:04:38;;;;;;;3.95;1.92;;;24.20;90.00;;;;;;5051969;28;20029;-55
2021/12/01 08:07:06;;;;;;;5.68;2.40;;;24.20;89.60;;;;;;5051955;28;20103;-55
2021/12/01 08:09:33;;;;;;;7.18;3.60;;;24.10;90.30;;;;;;5050427;28;20029;-57
2021/12/01 08:12:01;;;;;;;10.38;3.45;;;24.10;90.60;;;;;;5050700;28;20434;-56
2021/12/01 08:14:29;;;;;;;12.98;11.57;;;23.90;90.60;;;;;;5052389;28;20032;-56
2021/12/01 08:16:56;;;;;;;4.70;2.72;;;24.00;90.80;;;;;;5052476;28;20067;-57
2021/12/01 08:19:24;;;;;;;8.52;3.05;;;23.90;90.60;;;;;;5051966;28;20427;-61
2021/12/01 08:21:51;;;;;;;5.15;2.38;;;23.80;90.90;;;;;;5050429;28;20033;-57
2021/12/01 08:24:20;;;;;;;3.03;2.05;;;23.60;91.20;;;;;;5055276;28;20381;-56
2021/12/01 08:26:48;;;;;;;9.82;2.38;;;23.50;91.60;;;;;;5055352;28;20020;-59
2021/12/01 08:29:16;;;;;;;5.18;1.92;;;23.50;92.10;;;;;;5055665;28;20468;-55
2021/12/01 08:31:44;;;;;;;6.72;2.28;;;23.60;92.50;;;;;;5054277;28;20108;-55
2021/12/01 08:34:13;;;;;;;6.50;2.13;;;23.60;92.30;;;;;;5055003;28;20029;-56
2021/12/01 08:36:40;;;;;;;2.40;1.42;;;23.60;92.30;;;;;;5055564;28;20043;-58
2021/12/01 08:39:08;;;;;;;2.65;1.98;;;23.40;92.30;;;;;;5055250;28;20017;-51
2021/12/01 08:41:35;;;;;;;3.72;1.70;;;23.40;93.10;;;;;;5053926;28;20029;-56
2021/12/01 08:44:03;;;;;;;5.35;2.10;;;23.50;93.60;;;;;;5058756;28;20471;-52
2021/12/01 08:46:30;;;;;;;8.63;2.33;;;23.50;93.20;;;;;;5074972;28;20016;-58
2021/12/01 08:48:58;;;;;;;1.17;0.93;;;23.40;92.90;;;;;;5075056;28;20043;-59
2021/12/01 08:51:27;;;;;;;3.47;1.48;;;23.30;92.60;;;;;;5075317;28;20114;-57
2021/12/01 08:53:54;;;;;;;2.50;1.95;;;23.20;93.10;;;;;;5074973;28;20045;-56
2021/12/01 08:56:23;;;;;;;4.97;1.65;;;23.20;93.10;;;;;;5074992;28;20024;-59
2021/12/01 08:58:50;;;;;;;3.65;1.10;;;23.10;93.70;;;;;;5075163;28;20086;-56
2021/12/01 09:01:18;;;;;;;3.42;2.05;;;23.10;93.50;;;;;;5075040;28;20024;-57
2021/12/01 09:03:45;;;;;;;8.75;2.50;;;23.20;94.10;;;;;;5074721;28;20036;-58
2021/12/01 09:06:13;;;;;;;5.55;1.90;;;23.30;93.90;;;;;;5074617;28;20442;-59
2021/12/01 09:08:40;;;;;;;12.20;2.38;;;23.40;93.90;;;;;;5065934;28;20116;-58
2021/12/01 09:11:08;;;;;;;8.85;2.22;;;23.40;93.90;;;;;;5069529;28;20040;-60
2021/12/01 09:13:37;;;;;;;4.25;1.70;;;23.40;93.50;;;;;;5072085;28;20031;-60
2021/12/01 09:16:05;;;;;;;9.55;2.38;;;23.40;93.30;;;;;;5067737;28;20064;-56
2021/12/01 09:18:33;;;;;;;7.18;1.73;;;23.40;93.30;;;;;;5069000;28;20020;-58
2021/12/01 09:21:02;;;;;;;2.88;1.85;;;23.40;93.20;;;;;;5068660;28;20029;-54
2021/12/01 09:23:30;;;;;;;4.50;1.88;;;23.40;93.30;;;;;;5071088;28;20040;-55
2021/12/01 09:25:58;;;;;;;8.15;2.30;;;23.50;93.40;;;;;;5064653;28;20085;-54
2021/12/01 09:28:27;;;;;;;5.72;1.92;;;23.50;93.40;;;;;;5069180;28;20040;-57
2021/12/01 09:30:56;;;;;;;5.65;2.28;;;23.50;93.30;;;;;;5068089;28;20037;-55
2021/12/01 09:33:25;;;;;;;5.53;2.15;;;23.50;93.30;;;;;;5067861;28;20028;-62
2021/12/01 09:35:54;;;;;;;3.38;1.90;;;23.50;93.30;;;;;;5064505;28;20024;-55
2021/12/01 09:38:22;;;;;;;6.97;2.28;;;23.50;93.40;;;;;;5070144;28;20036;-57
2021/12/01 09:41:06;;;;;;;4.03;2.00;;;23.50;93.30;;;;;;5068960;28;20114;-56
2021/12/01 09:43:35;;;;;;;4.78;1.58;;;23.50;93.30;;;;;;5065018;28;20115;-59
2021/12/01 09:46:08;;;;;;;4.35;2.10;;;23.50;93.30;;;;;;5064545;28;20028;-58
2021/12/01 09:48:36;;;;;;;3.22;1.83;;;23.50;93.20;;;;;;5070686;28;20037;-57
2021/12/01 09:51:05;;;;;;;2.85;1.67;;;23.40;93.20;;;;;;5071302;28;20085;-55
2021/12/01 09:53:33;;;;;;;5.97;1.65;;;23.50;93.20;;;;;;5070867;28;20032;-57
2021/12/01 09:56:01;;;;;;;4.93;2.40;;;23.40;93.20;;;;;;5066558;28;20032;-58
2021/12/01 09:58:33;;;;;;;3.15;1.95;;;23.40;93.20;;;;;;5069925;28;20464;-59
2021/12/01 10:01:04;;;;;;;3.45;1.65;;;23.40;93.10;;;;;;5071168;28;20056;-62
2021/12/01 10:03:32;;;;;;;4.47;1.63;;;23.40;93.10;;;;;;5070042;28;20031;-58
2021/12/01 10:06:22;;;;;;;3.42;1.50;;;23.40;93.20;;;;;;5066934;28;20043;-56
2021/12/01 10:09:07;;;;;;;4.93;1.60;;;23.30;93.30;;;;;;5068400;28;20056;-62
2021/12/01 10:11:43;;;;;;;2.35;1.52;;;23.30;93.30;;;;;;5070800;28;20166;-56
2021/12/01 10:14:24;;;;;;;5.38;1.67;;;23.30;93.30;;;;;;5069176;28;20036;-59
2021/12/01 10:16:58;;;;;;;1.60;1.30;;;23.30;93.20;;;;;;5070930;28;20020;-51
2021/12/01 10:19:30;;;;;;;7.40;1.30;;;23.30;93.30;;;;;;5070942;28;20079;-59
2021/12/01 10:22:07;;;;;;;2.47;1.20;;;23.30;93.30;;;;;;5070221;28;20504;-58
2021/12/01 10:24:37;;;;;;;9.30;1.50;;;23.30;93.30;;;;;;5066576;28;20699;-57
2021/12/01 10:27:14;;;;;;;5.38;1.20;;;23.20;93.20;;;;;;5070345;28;20029;-56
2021/12/01 10:30:04;;;;;;;1.85;1.20;;;23.20;93.20;;;;;;5070864;28;20121;-56
2021/12/01 10:32:31;;;;;;;5.45;1.60;;;23.20;93.30;;;;;;5068885;28;20178;-55
2021/12/01 10:35:00;;;;;;;4.35;1.27;;;23.20;93.30;;;;;;5067506;28;20027;-59
2021/12/01 10:37:30;;;;;;;3.28;1.58;;;23.20;93.30;;;;;;5069296;28;20383;-61
2021/12/01 10:40:18;;;;;;;2.53;1.27;;;23.20;93.30;;;;;;5068579;28;20028;-58
2021/12/01 10:43:02;;;;;;;3.35;1.50;;;23.20;93.30;;;;;;5069386;28;20024;-62
2021/12/01 10:45:42;;;;;;;5.40;1.60;;;23.20;93.30;;;;;;5064908;28;20538;-54
2021/12/01 10:48:20;;;;;;;4.75;1.33;;;23.20;93.30;;;;;;5053921;28;20421;-51
2021/12/01 10:50:47;;;;;;;4.72;1.10;;;23.20;93.30;;;;;;5070010;28;20040;-56
2021/12/01 10:53:21;;;;;;;2.33;1.30;;;23.10;93.30;;;;;;5068935;28;20024;-59
2021/12/01 10:56:10;;;;;;;1.58;1.13;;;23.10;93.30;;;;;;5067105;28;20032;-59
2021/12/01 10:58:42;;;;;;;2.80;1.00;;;23.10;93.30;;;;;;5067336;28;20016;-57
2021/12/01 11:01:25;;;;;;;1.85;1.17;;;23.00;93.30;;;;;;5065971;28;20383;-56
2021/12/01 11:03:53;;;;;;;1.63;1.05;;;23.00;93.30;;;;;;5068780;28;20364;-57
2021/12/01 11:06:23;;;;;;;2.15;0.90;;;23.00;93.30;;;;;;5066785;28;20032;-54
2021/12/01 11:08:57;;;;;;;3.35;1.10;;;23.00;93.30;;;;;;5069290;28;20024;-56
2021/12/01 11:11:34;;;;;;;3.03;1.20;;;23.00;93.30;;;;;;5067322;28;20155;-56
2021/12/01 11:14:24;;;;;;;3.42;1.73;;;23.00;93.40;;;;;;5069281;28;20032;-52
2021/12/01 11:16:57;;;;;;;3.08;1.10;;;22.90;93.40;;;;;;5072842;28;20032;-59
2021/12/01 11:19:33;;;;;;;4.68;1.10;;;22.90;93.40;;;;;;5072627;28;20032;-59
2021/12/01 11:22:27;;;;;;;1.50;1.05;;;22.90;93.40;;;;;;5071880;28;20459;-60
2021/12/01 11:25:22;;;;;;;2.15;1.13;;;22.90;93.50;;;;;;5071951;28;20094;-52
2021/12/01 11:27:51;;;;;;;1.83;1.20;;;22.90;93.50;;;;;;5072359;28;20032;-58
2021/12/01 11:30:19;;;;;;;1.58;0.95;;;22.80;93.40;;;;;;5072475;28;20036;-54
2021/12/01 11:32:47;;;;;;;2.38;1.20;;;22.80;93.50;;;;;;5072686;28;20067;-50
2021/12/01 11:35:14;;;;;;;3.88;1.20;;;22.80;93.50;;;;;;5072686;28;20028;-56
2021/12/01 11:37:42;;;;;;;3.85;1.00;;;22.80;93.50;;;;;;5072537;28;20525;-53
2021/12/01 11:40:10;;;;;;;1.55;1.00;;;22.80;93.50;;;;;;5072399;28;20021;-59
2021/12/01 11:42:41;;;;;;;4.95;1.02;;;22.80;93.50;;;;;;5072430;28;20119;-57
2021/12/01 11:45:09;;;;;;;2.60;1.10;;;22.70;93.50;;;;;;5072534;28;20029;-58
2021/12/01 11:47:36;;;;;;;2.20;0.98;;;22.70;93.50;;;;;;5072771;28;20108;-56
2021/12/01 11:50:07;;;;;;;1.42;0.80;;;22.70;93.50;;;;;;5072080;28;20471;-56
2021/12/01 11:52:47;;;;;;;3.03;1.42;;;22.70;93.50;;;;;;5072343;28;20032;-57
2021/12/01 11:55:15;;;;;;;2.15;1.00;;;22.70;93.40;;;;;;5072192;28;20178;-58
2021/12/01 11:57:42;;;;;;;3.03;1.00;;;22.70;93.50;;;;;;5071501;28;20020;-60
2021/12/01 12:00:11;;;;;;;2.10;1.02;;;22.70;93.50;;;;;;5076016;28;20487;-57
2021/12/01 12:02:38;;;;;;;0.85;0.68;;;22.70;93.50;;;;;;5075785;28;20024;-52
2021/12/01 12:05:17;;;;;;;0.90;0.77;;;22.70;93.50;;;;;;5076433;28;20466;-61
2021/12/01 12:07:45;;;;;;;2.08;1.08;;;22.70;93.60;;;;;;5075339;28;20024;-59
2021/12/01 12:10:18;;;;;;;1.20;0.85;;;22.70;93.60;;;;;;5076012;28;20033;-57
2021/12/01 12:13:00;;;;;;;1.25;0.85;;;22.70;93.50;;;;;;5072967;28;20098;-55
2021/12/01 12:15:34;;;;;;;2.08;0.90;;;22.70;93.50;;;;;;5075998;28;20036;-60
2021/12/01 12:18:02;;;;;;;0.68;0.57;;;22.70;93.50;;;;;;5075120;28;20040;-58
2021/12/01 12:20:53;;;;;;;1.35;0.70;;;22.70;93.50;;;;;;5071817;28;20418;-55
2021/12/01 12:23:32;;;;;;;2.00;0.90;;;22.60;93.50;;;;;;5072796;28;20368;-52
2021/12/01 12:25:59;;;;;;;2.10;0.77;;;22.60;93.50;;;;;;5075435;28;20426;-57
2021/12/01 12:28:31;;;;;;;2.03;0.80;;;22.60;93.60;;;;;;5075672;28;20420;-57
2021/12/01 12:31:06;;;;;;;1.63;0.80;;;22.60;93.60;;;;;;5075837;28;20111;-60
2021/12/01 12:33:40;;;;;;;3.80;0.90;;;22.60;93.60;;;;;;5075863;28;20151;-60
2021/12/01 12:36:10;;;;;;;2.05;0.80;;;22.60;93.60;;;;;;5075601;28;20056;-59
2021/12/01 12:38:58;;;;;;;1.65;0.73;;;22.60;93.80;;;;;;5075494;28;20027;-55
2021/12/01 12:41:26;;;;;;;1.25;0.68;;;22.50;93.60;;;;;;5075981;28;20095;-62
2021/12/01 12:43:53;;;;;;;1.48;0.65;;;22.50;93.60;;;;;;5074285;28;20028;-53
2021/12/01 12:46:21;;;;;;;1.42;0.50;;;22.50;93.60;;;;;;5068425;28;20469;-57
2021/12/01 12:48:51;;;;;;;1.50;0.52;;;22.50;93.60;;;;;;5067228;28;20110;-55
2021/12/01 12:51:40;;;;;;;3.35;1.00;;;22.50;93.70;;;;;;5073112;28;20116;-55
2021/12/01 12:54:40;;;;;;;2.05;1.00;;;22.50;93.70;;;;;;5057760;28;20128;-54
2021/12/01 12:57:08;;;;;;;2.55;0.93;;;22.50;93.80;;;;;;5061596;28;20033;-53
2021/12/01 12:59:42;;;;;;;2.33;1.00;;;22.50;93.80;;;;;;5075522;28;20128;-55
2021/12/01 13:02:14;;;;;;;1.75;0.75;;;22.50;93.90;;;;;;5072892;28;20175;-61
2021/12/01 13:04:58;;;;;;;3.28;1.17;;;22.40;93.90;;;;;;5078472;28;20033;-58
2021/12/01 13:07:38;;;;;;;2.45;1.00;;;22.40;93.90;;;;;;5075216;28;20033;-60